Aviation Digital Data Service (ADDS)

Output produced by METARs form (1931 UTC 18 June 2019)
found at http://www.aviationweather.gov/metar/data/
 
SMJP 181900Z 16004KT 9999 VCSH SCT015 FEW018CB SCT025 30/21 Q1011 NOSIG
TAF SMJP 181600Z 1818/1918 14010KT 9999 SCT025 TX32/1917Z TN23/1909Z 
     PROB40 
     TEMPO 1818/1821 4000 SHRA FEW015CB SCT020 
     BECMG 1901/1903 05003KT 
     BECMG 1908/1909 00000KT 2000 BR SCT002 
     BECMG 1911/1912 09006KT 9999 SCT012